createdAt,value
2022-11-27T00:00:08.864Z,22.70
2022-11-27T00:03:07.201Z,22.50
2022-11-27T00:05:40.973Z,22.50
2022-11-27T00:08:14.528Z,24.70
2022-11-27T00:10:48.279Z,25.10
2022-11-27T00:13:21.675Z,21.20
2022-11-27T00:15:58.551Z,23.40
2022-11-27T00:18:32.572Z,23.40
2022-11-27T00:21:09.038Z,23.60
2022-11-27T00:23:42.834Z,23.40
2022-11-27T00:26:16.494Z,21.70
2022-11-27T00:28:50.465Z,21.10
2022-11-27T00:31:28.826Z,21.10
2022-11-27T00:34:04.938Z,22.00
2022-11-27T00:36:39.794Z,23.90
2022-11-27T00:39:15.674Z,24.50
2022-11-27T00:41:49.144Z,24.30
2022-11-27T00:44:22.712Z,24.80
2022-11-27T00:46:56.841Z,25.30
2022-11-27T00:49:30.836Z,24.90
2022-11-27T00:52:04.296Z,25.10
2022-11-27T00:54:38.178Z,25.10
2022-11-27T00:57:12.341Z,28.10
2022-11-27T00:59:45.974Z,27.20
2022-11-27T01:02:20.308Z,26.10
2022-11-27T01:04:54.207Z,24.90
2022-11-27T01:07:27.849Z,25.70
2022-11-27T01:10:01.520Z,25.60
2022-11-27T01:12:35.339Z,27.30
2022-11-27T01:15:10.606Z,26.00
2022-11-27T01:17:44.117Z,27.40
2022-11-27T01:20:17.869Z,25.20
2022-11-27T01:22:51.444Z,25.60
2022-11-27T01:25:27.100Z,23.40
2022-11-27T01:28:01.361Z,23.50
2022-11-27T01:30:34.605Z,25.40
2022-11-27T01:33:08.182Z,23.80
2022-11-27T01:35:41.719Z,25.80
2022-11-27T01:38:15.354Z,24.90
2022-11-27T01:40:48.684Z,26.80
2022-11-27T01:43:42.274Z,26.90
2022-11-27T01:46:36.481Z,27.00
2022-11-27T01:49:27.376Z,26.90
2022-11-27T01:52:04.276Z,24.80
2022-11-27T01:54:44.044Z,27.20
2022-11-27T01:57:20.804Z,27.20
2022-11-27T01:59:56.482Z,26.90
2022-11-27T02:02:30.253Z,26.70
2022-11-27T02:05:05.298Z,27.60
2022-11-27T02:07:38.865Z,28.90
2022-11-27T02:10:14.223Z,27.90
2022-11-27T02:12:56.027Z,26.70
2022-11-27T02:15:39.492Z,26.60
2022-11-27T02:18:20.794Z,25.90
2022-11-27T02:21:02.187Z,29.00
2022-11-27T02:24:00.476Z,30.00
2022-11-27T02:27:05.578Z,28.60
2022-11-27T02:29:41.493Z,28.10
2022-11-27T02:32:20.823Z,28.90
2022-11-27T02:34:58.068Z,26.70
2022-11-27T02:37:41.918Z,27.60
2022-11-27T02:40:21.679Z,27.70
2022-11-27T02:42:59.867Z,29.70
2022-11-27T02:45:37.938Z,31.10
2022-11-27T02:48:14.557Z,30.30
2022-11-27T02:50:50.744Z,29.90
2022-11-27T02:53:28.422Z,29.50
2022-11-27T02:56:04.226Z,29.30
2022-11-27T02:58:39.725Z,30.30
2022-11-27T03:01:14.006Z,31.10
2022-11-27T03:03:53.908Z,27.90
2022-11-27T03:06:35.578Z,27.30
2022-11-27T03:09:12.594Z,29.80
2022-11-27T03:11:47.123Z,30.00
2022-11-27T03:14:25.254Z,27.70
2022-11-27T03:17:07.698Z,29.40
2022-11-27T03:19:47.951Z,30.40
2022-11-27T03:22:21.390Z,28.50
2022-11-27T03:24:55.527Z,29.30
2022-11-27T03:27:33.671Z,31.10
2022-11-27T03:30:11.144Z,28.70
2022-11-27T03:32:44.733Z,29.20
2022-11-27T03:35:21.734Z,29.50
2022-11-27T03:37:56.332Z,29.00
2022-11-27T03:40:37.899Z,28.00
2022-11-27T03:43:16.111Z,29.00
2022-11-27T03:45:59.962Z,28.80
2022-11-27T03:48:38.845Z,29.10
2022-11-27T03:51:19.569Z,30.10
2022-11-27T03:54:02.403Z,32.30
2022-11-27T03:56:40.010Z,27.90
2022-11-27T03:59:18.566Z,31.10
2022-11-27T04:04:24.098Z,26.00
2022-11-27T04:06:58.021Z,28.40
2022-11-27T04:09:31.637Z,26.40
2022-11-27T04:12:05.170Z,28.50
2022-11-27T04:14:39.068Z,28.90
2022-11-27T04:17:13.166Z,26.20
2022-11-27T04:19:47.147Z,25.80
2022-11-27T04:22:20.767Z,25.80
2022-11-27T04:24:54.858Z,25.50
2022-11-27T04:27:28.353Z,27.70
2022-11-27T04:30:01.680Z,24.40
2022-11-27T04:32:35.412Z,25.30
2022-11-27T04:35:10.613Z,23.80
2022-11-27T04:37:44.072Z,28.70
2022-11-27T04:40:18.220Z,29.00
2022-11-27T04:42:52.142Z,26.00
2022-11-27T04:45:25.629Z,30.00
2022-11-27T04:47:59.578Z,25.80
2022-11-27T04:50:33.221Z,26.80
2022-11-27T04:53:07.103Z,27.90
2022-11-27T04:55:40.624Z,25.70
2022-11-27T04:58:14.245Z,27.20
2022-11-27T05:00:47.988Z,27.00
2022-11-27T05:03:21.541Z,28.20
2022-11-27T05:06:00.117Z,28.60
2022-11-27T05:08:34.858Z,29.90
2022-11-27T05:11:10.345Z,28.30
2022-11-27T05:13:43.939Z,28.00
2022-11-27T05:16:17.917Z,27.50
2022-11-27T05:18:51.492Z,29.20
2022-11-27T05:21:24.953Z,26.60
2022-11-27T05:23:58.740Z,31.80
2022-11-27T05:26:32.427Z,30.40
2022-11-27T05:29:06.363Z,32.00
2022-11-27T05:31:45.267Z,33.60
2022-11-27T05:34:23.122Z,34.30
2022-11-27T05:36:56.575Z,31.60
2022-11-27T05:40:02.394Z,32.70
2022-11-27T05:42:37.693Z,31.80
2022-11-27T05:45:12.798Z,31.80
2022-11-27T05:47:46.800Z,31.80
2022-11-27T05:50:20.563Z,33.00
2022-11-27T05:52:53.837Z,34.20
2022-11-27T05:55:27.478Z,32.60
2022-11-27T05:58:00.839Z,33.00
2022-11-27T06:00:34.571Z,32.20
2022-11-27T06:03:08.016Z,30.40
2022-11-27T06:05:43.919Z,32.10
2022-11-27T06:08:17.588Z,31.20
2022-11-27T06:10:52.104Z,31.60
2022-11-27T06:13:25.850Z,32.20
2022-11-27T06:15:59.221Z,30.50
2022-11-27T06:18:32.887Z,32.50
2022-11-27T06:21:10.052Z,29.50
2022-11-27T06:23:44.618Z,32.60
2022-11-27T06:26:21.044Z,32.80
2022-11-27T06:28:55.161Z,33.10
2022-11-27T06:31:31.733Z,31.90
2022-11-27T06:34:06.152Z,34.50
2022-11-27T06:36:41.682Z,32.60
2022-11-27T06:39:15.044Z,31.20
2022-11-27T06:41:48.381Z,31.20
2022-11-27T06:44:22.426Z,30.00
2022-11-27T06:46:56.657Z,33.20
2022-11-27T06:49:30.297Z,32.30
2022-11-27T06:52:03.806Z,31.30
2022-11-27T06:54:37.044Z,32.90
2022-11-27T06:57:11.641Z,30.90
2022-11-27T06:59:45.600Z,29.60
2022-11-27T07:02:19.412Z,27.40
2022-11-27T07:04:53.364Z,26.00
2022-11-27T07:07:27.261Z,27.80
2022-11-27T07:10:01.299Z,31.60
2022-11-27T07:12:35.201Z,29.30
2022-11-27T07:15:10.413Z,29.00
2022-11-27T07:17:43.700Z,27.90
2022-11-27T07:20:17.904Z,27.80
2022-11-27T07:22:51.656Z,27.10
2022-11-27T07:25:25.357Z,27.80
2022-11-27T07:27:59.373Z,26.90
2022-11-27T07:30:33.136Z,28.80
2022-11-27T07:33:06.904Z,27.20
2022-11-27T07:35:40.558Z,29.40
2022-11-27T07:38:14.330Z,29.50
2022-11-27T07:40:47.922Z,29.30
2022-11-27T07:43:21.243Z,28.00
2022-11-27T07:45:55.430Z,26.00
2022-11-27T07:48:29.296Z,30.10
2022-11-27T07:51:02.746Z,29.30
2022-11-27T07:53:39.399Z,28.60
2022-11-27T07:56:15.578Z,30.80
2022-11-27T07:58:49.051Z,30.50
2022-11-27T08:01:22.945Z,30.20
2022-11-27T08:03:57.423Z,32.80
2022-11-27T08:06:31.049Z,29.20
2022-11-27T08:09:05.348Z,28.60
2022-11-27T08:11:39.139Z,31.70
2022-11-27T08:14:14.448Z,29.80
2022-11-27T08:16:48.244Z,31.80
2022-11-27T08:19:21.656Z,31.80
2022-11-27T08:21:56.574Z,29.20
2022-11-27T08:24:30.097Z,30.10
2022-11-27T08:27:03.844Z,29.00
2022-11-27T08:29:37.449Z,30.90
2022-11-27T08:32:11.539Z,31.80
2022-11-27T08:34:45.262Z,33.50
2022-11-27T08:37:19.202Z,32.20
2022-11-27T08:39:52.362Z,30.10
2022-11-27T08:42:26.984Z,29.60
2022-11-27T08:45:00.582Z,28.60
2022-11-27T08:47:34.158Z,29.60
2022-11-27T08:50:09.335Z,28.70
2022-11-27T08:52:43.441Z,30.70
2022-11-27T08:55:17.283Z,31.50
2022-11-27T08:57:50.998Z,32.20
2022-11-27T09:00:28.144Z,31.00
2022-11-27T09:03:02.574Z,30.80
2022-11-27T09:05:36.808Z,26.90
2022-11-27T09:08:10.250Z,31.80
2022-11-27T09:10:43.656Z,31.50
2022-11-27T09:13:17.415Z,32.20
2022-11-27T09:15:51.341Z,31.50
2022-11-27T09:18:25.366Z,29.70
2022-11-27T09:21:03.404Z,34.30
2022-11-27T09:23:37.833Z,33.00
2022-11-27T09:26:13.433Z,31.20
2022-11-27T09:28:47.555Z,30.70
2022-11-27T09:31:21.470Z,30.30
2022-11-27T09:33:55.246Z,30.70
2022-11-27T09:36:29.046Z,30.30
2022-11-27T09:39:03.932Z,32.40
2022-11-27T09:41:48.052Z,30.90
2022-11-27T09:44:32.714Z,32.40
2022-11-27T09:47:16.019Z,32.50
2022-11-27T09:49:53.554Z,32.80
2022-11-27T09:52:33.625Z,31.20
2022-11-27T09:55:13.298Z,31.30
2022-11-27T09:57:55.562Z,31.50
2022-11-27T10:00:30.065Z,32.90
2022-11-27T10:03:03.898Z,34.50
2022-11-27T10:05:47.414Z,30.80
2022-11-27T10:08:34.754Z,32.30
2022-11-27T10:11:23.411Z,31.40
2022-11-27T10:16:44.709Z,31.50
2022-11-27T10:19:28.959Z,32.20
2022-11-27T10:22:13.386Z,33.20
2022-11-27T10:24:54.533Z,35.90
2022-11-27T10:27:34.917Z,31.80
2022-11-27T10:30:18.752Z,33.90
2022-11-27T10:32:57.697Z,33.30
2022-11-27T10:35:33.864Z,35.60
2022-11-27T10:38:14.517Z,34.60
2022-11-27T10:40:55.474Z,34.80
2022-11-27T10:43:29.562Z,32.60
2022-11-27T10:46:11.230Z,32.20
2022-11-27T10:48:45.027Z,31.50
2022-11-27T10:51:22.585Z,32.40
2022-11-27T10:53:57.522Z,32.80
2022-11-27T10:56:54.774Z,34.80
2022-11-27T10:59:34.850Z,31.00
2022-11-27T11:02:26.364Z,30.90
2022-11-27T11:05:30.030Z,31.30
2022-11-27T11:08:06.264Z,29.10
2022-11-27T11:10:45.872Z,28.90
2022-11-27T11:13:27.963Z,28.60
2022-11-27T11:16:06.981Z,27.00
2022-11-27T11:18:49.480Z,27.90
2022-11-27T11:21:28.754Z,27.10
2022-11-27T11:24:05.701Z,27.00
2022-11-27T11:26:45.702Z,28.00
2022-11-27T11:29:32.518Z,27.50
2022-11-27T11:32:11.817Z,26.90
2022-11-27T11:34:57.681Z,29.90
2022-11-27T11:37:36.351Z,29.40
2022-11-27T11:40:23.719Z,29.10
2022-11-27T11:42:59.354Z,28.40
2022-11-27T11:45:35.266Z,26.40
2022-11-27T11:48:25.103Z,29.10
2022-11-27T11:51:03.410Z,26.90
2022-11-27T11:53:39.656Z,28.70
2022-11-27T11:56:33.804Z,27.10
2022-11-27T11:59:16.510Z,26.10
2022-11-27T12:02:11.600Z,27.50
2022-11-27T12:05:03.947Z,26.60
2022-11-27T12:07:55.984Z,26.80
2022-11-27T12:10:35.301Z,27.20
2022-11-27T12:13:22.579Z,26.10
2022-11-27T12:16:01.861Z,24.40
2022-11-27T12:18:47.318Z,24.50
2022-11-27T12:21:30.353Z,26.90
2022-11-27T12:24:19.657Z,26.20
2022-11-27T12:27:07.688Z,28.40
2022-11-27T12:30:10.789Z,28.60
2022-11-27T12:33:01.157Z,26.60
2022-11-27T12:35:43.771Z,28.10
2022-11-27T12:38:43.782Z,26.30
2022-11-27T12:41:47.470Z,24.80
2022-11-27T12:44:30.238Z,24.80
2022-11-27T12:47:08.894Z,24.30
2022-11-27T12:52:22.173Z,24.40
2022-11-27T12:55:04.125Z,25.80
2022-11-27T12:57:46.593Z,26.90
2022-11-27T13:00:25.193Z,25.70
2022-11-27T13:03:08.260Z,27.30
2022-11-27T13:05:48.049Z,25.00
2022-11-27T13:08:28.467Z,24.80
2022-11-27T13:11:06.846Z,25.80
2022-11-27T13:13:45.328Z,25.50
2022-11-27T13:16:23.960Z,27.30
2022-11-27T13:21:35.693Z,27.10
2022-11-27T13:24:13.875Z,27.20
2022-11-27T13:26:54.566Z,26.90
2022-11-27T13:29:33.932Z,26.60
2022-11-27T13:32:09.555Z,24.40
2022-11-27T13:34:49.627Z,26.30
2022-11-27T13:37:36.407Z,25.60
2022-11-27T13:40:23.625Z,25.30
2022-11-27T13:43:02.866Z,26.80
2022-11-27T13:45:38.614Z,26.90
2022-11-27T13:48:31.702Z,28.00
2022-11-27T13:51:07.612Z,28.00
2022-11-27T13:53:43.187Z,29.30
2022-11-27T13:56:16.975Z,28.60
2022-11-27T13:58:50.648Z,25.00
2022-11-27T14:01:26.478Z,25.40
2022-11-27T14:04:10.996Z,26.70
2022-11-27T14:06:53.991Z,27.30
2022-11-27T14:09:40.235Z,26.80
2022-11-27T14:12:26.074Z,26.50
2022-11-27T14:15:10.744Z,26.10
2022-11-27T14:17:47.545Z,26.10
2022-11-27T14:20:30.649Z,27.70
2022-11-27T14:23:12.433Z,25.60
2022-11-27T14:25:50.625Z,28.60
2022-11-27T14:28:26.786Z,26.70
2022-11-27T14:31:03.478Z,29.60
2022-11-27T14:34:13.388Z,28.90
2022-11-27T14:36:41.511Z,27.40
2022-11-27T14:39:27.628Z,33.60
2022-11-27T14:42:03.778Z,31.80
2022-11-27T14:44:38.149Z,30.20
2022-11-27T14:47:25.029Z,30.10
2022-11-27T14:50:01.505Z,30.50
2022-11-27T14:52:35.388Z,30.20
2022-11-27T14:55:16.691Z,28.40
2022-11-27T14:57:52.165Z,32.70
2022-11-27T15:00:29.429Z,30.60
2022-11-27T15:03:12.812Z,28.60
2022-11-27T15:05:56.933Z,30.80
2022-11-27T15:08:33.560Z,32.70
2022-11-27T15:11:08.227Z,32.90
2022-11-27T15:13:42.359Z,32.80
2022-11-27T15:16:22.127Z,33.40
2022-11-27T15:18:59.560Z,32.40
2022-11-27T15:21:36.427Z,34.10
2022-11-27T15:24:33.629Z,31.80
2022-11-27T15:27:23.079Z,31.50
2022-11-27T15:30:15.482Z,30.30
2022-11-27T15:32:53.161Z,31.90
2022-11-27T15:35:32.813Z,30.10
2022-11-27T15:38:15.979Z,42.30
2022-11-27T15:41:02.137Z,45.80
2022-11-27T15:43:35.535Z,49.20
2022-11-27T15:46:13.311Z,60.20
2022-11-27T15:48:47.143Z,64.50
2022-11-27T15:51:22.538Z,48.50
2022-11-27T15:53:56.237Z,48.30
2022-11-27T15:56:30.958Z,47.70
2022-11-27T15:59:04.707Z,47.40
2022-11-27T16:01:39.086Z,47.10
2022-11-27T16:04:13.146Z,42.60
2022-11-27T16:06:47.794Z,43.20
2022-11-27T16:09:21.638Z,46.10
2022-11-27T16:11:55.241Z,39.40
2022-11-27T16:14:28.543Z,37.20
2022-11-27T16:17:02.881Z,35.10
2022-11-27T16:19:37.099Z,37.10
2022-11-27T16:22:11.948Z,39.10
2022-11-27T16:24:47.790Z,47.40
2022-11-27T16:27:22.509Z,55.50
2022-11-27T16:29:57.813Z,48.70
2022-11-27T16:32:31.646Z,41.20
2022-11-27T16:35:11.475Z,41.30
2022-11-27T16:37:48.105Z,37.70
2022-11-27T16:40:22.190Z,37.00
2022-11-27T16:42:56.814Z,35.00
2022-11-27T16:45:34.895Z,36.70
2022-11-27T16:48:09.948Z,37.90
2022-11-27T16:50:44.856Z,40.30
2022-11-27T16:53:19.235Z,38.50
2022-11-27T16:55:54.105Z,39.00
2022-11-27T16:58:34.937Z,38.90
2022-11-27T17:01:11.161Z,40.80
2022-11-27T17:03:47.370Z,46.00
2022-11-27T17:06:24.503Z,46.10
2022-11-27T17:09:00.268Z,44.90
2022-11-27T17:11:36.236Z,47.70
2022-11-27T17:14:11.850Z,43.60
2022-11-27T17:16:46.200Z,47.50
2022-11-27T17:19:25.050Z,46.80
2022-11-27T17:21:59.466Z,47.80
2022-11-27T17:24:36.575Z,46.30
2022-11-27T17:27:13.314Z,41.60
2022-11-27T17:29:49.106Z,43.80
2022-11-27T17:32:25.877Z,41.90
2022-11-27T17:35:02.038Z,42.80
2022-11-27T17:37:37.269Z,39.20
2022-11-27T17:40:14.540Z,43.10
2022-11-27T17:42:48.852Z,40.10
2022-11-27T17:45:29.329Z,39.00
2022-11-27T17:48:03.725Z,53.50
2022-11-27T17:50:38.352Z,52.50
2022-11-27T17:53:13.197Z,41.60
2022-11-27T17:55:47.998Z,38.40
2022-11-27T17:58:23.696Z,43.10
2022-11-27T18:00:58.459Z,38.60
2022-11-27T18:03:40.917Z,43.80
2022-11-27T18:06:16.386Z,37.50
2022-11-27T18:08:51.964Z,40.30
2022-11-27T18:11:29.441Z,39.20
2022-11-27T18:14:09.113Z,39.00
2022-11-27T18:16:43.981Z,40.90
2022-11-27T18:19:18.899Z,37.60
2022-11-27T18:21:55.320Z,37.10
2022-11-27T18:24:31.562Z,38.00
2022-11-27T18:27:08.469Z,36.00
2022-11-27T18:29:46.408Z,40.20
2022-11-27T18:32:21.532Z,47.10
2022-11-27T18:34:57.408Z,46.20
2022-11-27T18:37:33.863Z,45.00
2022-11-27T18:40:10.778Z,44.20
2022-11-27T18:42:46.672Z,40.60
2022-11-27T18:45:32.720Z,39.00
2022-11-27T18:48:12.840Z,38.30
2022-11-27T18:50:47.974Z,38.90
2022-11-27T18:53:22.654Z,41.70
2022-11-27T18:56:02.392Z,41.30
2022-11-27T18:58:38.134Z,43.30
2022-11-27T19:01:18.633Z,41.40
2022-11-27T19:03:53.826Z,40.70
2022-11-27T19:06:29.521Z,41.90
2022-11-27T19:09:03.977Z,40.00
2022-11-27T19:11:39.707Z,37.20
2022-11-27T19:14:19.856Z,39.10
2022-11-27T19:16:55.026Z,45.30
2022-11-27T19:19:53.778Z,40.90
2022-11-27T19:22:27.616Z,46.10
2022-11-27T19:25:06.105Z,47.70
2022-11-27T19:27:41.293Z,43.80
2022-11-27T19:30:16.791Z,39.90
2022-11-27T19:32:52.934Z,38.20
2022-11-27T19:35:27.872Z,35.60
2022-11-27T19:38:06.965Z,37.10
2022-11-27T19:40:42.977Z,37.60
2022-11-27T19:43:18.095Z,40.00
2022-11-27T19:45:54.450Z,41.20
2022-11-27T19:48:29.987Z,38.20
2022-11-27T19:51:06.834Z,36.20
2022-11-27T19:53:41.504Z,34.80
2022-11-27T19:56:19.163Z,37.70
2022-11-27T19:58:54.315Z,41.10
2022-11-27T20:01:28.877Z,39.60
2022-11-27T20:04:05.097Z,41.20
2022-11-27T20:06:40.104Z,42.50
2022-11-27T20:09:16.064Z,39.20
2022-11-27T20:11:51.219Z,40.50
2022-11-27T20:14:26.919Z,39.30
2022-11-27T20:17:02.974Z,42.20
2022-11-27T20:19:37.235Z,42.70
2022-11-27T20:22:11.969Z,47.90
2022-11-27T20:25:11.606Z,43.30
2022-11-27T20:27:45.432Z,40.10
2022-11-27T20:30:24.389Z,38.60
2022-11-27T20:33:01.933Z,39.40
2022-11-27T20:35:43.120Z,39.90
2022-11-27T20:38:21.851Z,40.00
2022-11-27T20:40:58.526Z,43.30
2022-11-27T20:43:32.819Z,45.90
2022-11-27T20:46:10.306Z,45.00
2022-11-27T20:48:47.198Z,44.10
2022-11-27T20:51:23.548Z,39.80
2022-11-27T20:53:59.448Z,37.90
2022-11-27T20:56:34.638Z,42.10
2022-11-27T20:59:09.442Z,44.80
2022-11-27T21:01:44.567Z,44.60
2022-11-27T21:04:26.872Z,42.70
2022-11-27T21:07:01.464Z,40.90
2022-11-27T21:09:36.388Z,41.30
2022-11-27T21:12:14.037Z,40.20
2022-11-27T21:14:48.928Z,39.00
2022-11-27T21:17:23.586Z,40.10
2022-11-27T21:19:57.409Z,40.20
2022-11-27T21:22:32.830Z,39.70
2022-11-27T21:25:07.490Z,40.50
2022-11-27T21:27:41.823Z,42.90
2022-11-27T21:30:16.753Z,39.80
2022-11-27T21:32:51.541Z,40.30
2022-11-27T21:35:30.125Z,39.80
2022-11-27T21:38:05.251Z,42.90
2022-11-27T21:40:39.894Z,41.40
2022-11-27T21:43:14.212Z,42.00
2022-11-27T21:45:47.974Z,43.90
2022-11-27T21:48:21.268Z,41.10
2022-11-27T21:51:02.620Z,40.10
2022-11-27T21:53:37.133Z,39.90
2022-11-27T21:56:13.060Z,37.80
2022-11-27T21:58:47.050Z,40.70
2022-11-27T22:01:23.333Z,39.60
2022-11-27T22:03:58.175Z,42.10
2022-11-27T22:06:37.380Z,41.90
2022-11-27T22:09:15.335Z,43.60
2022-11-27T22:11:50.118Z,39.20
2022-11-27T22:14:24.123Z,35.50
2022-11-27T22:16:57.824Z,39.80
2022-11-27T22:19:32.718Z,41.30
2022-11-27T22:22:08.522Z,42.40
2022-11-27T22:24:41.957Z,41.60
2022-11-27T22:27:15.572Z,41.20
2022-11-27T22:29:49.408Z,42.20
2022-11-27T22:32:23.214Z,40.70
2022-11-27T22:34:56.889Z,41.30
2022-11-27T22:37:31.020Z,41.10
2022-11-27T22:40:05.084Z,42.10
2022-11-27T22:42:39.300Z,42.70
2022-11-27T22:45:13.382Z,44.00
2022-11-27T22:47:47.027Z,43.40
2022-11-27T22:50:21.092Z,43.00
2022-11-27T22:52:58.266Z,42.40
2022-11-27T22:55:31.922Z,41.50
2022-11-27T22:58:05.585Z,42.20
2022-11-27T23:00:39.934Z,41.90
2022-11-27T23:03:14.729Z,41.70
2022-11-27T23:05:49.489Z,40.50
2022-11-27T23:08:23.427Z,39.90
2022-11-27T23:10:56.763Z,42.00
2022-11-27T23:13:30.731Z,41.00
2022-11-27T23:16:07.817Z,44.50
2022-11-27T23:18:41.493Z,42.60
2022-11-27T23:21:18.825Z,41.90
2022-11-27T23:23:52.943Z,43.60
2022-11-27T23:26:27.001Z,41.30
2022-11-27T23:29:00.754Z,40.90
2022-11-27T23:31:36.592Z,40.40
2022-11-27T23:34:15.700Z,44.60
2022-11-27T23:36:49.074Z,43.50
2022-11-27T23:39:22.936Z,39.60
2022-11-27T23:41:56.160Z,42.70
2022-11-27T23:44:29.518Z,40.90
2022-11-27T23:47:03.248Z,41.00
2022-11-27T23:49:37.008Z,42.60
2022-11-27T23:52:15.712Z,42.10
2022-11-27T23:54:51.582Z,43.70
2022-11-27T23:57:25.000Z,47.20
2022-11-27T23:59:58.919Z,42.50
